createdAt,value
2018-07-01T00:01:01.815Z,12.99
2018-07-01T00:02:11.334Z,13.02
2018-07-01T00:03:21.143Z,12.99
2018-07-01T00:04:31.224Z,12.99
2018-07-01T00:05:41.019Z,13.01
2018-07-01T00:06:50.860Z,12.88
2018-07-01T00:08:00.927Z,12.86
2018-07-01T00:09:10.719Z,12.81
2018-07-01T00:10:20.785Z,12.81
2018-07-01T00:11:30.587Z,12.7
2018-07-01T00:12:40.698Z,12.68
2018-07-01T00:13:50.789Z,12.68
2018-07-01T00:15:00.594Z,12.65
2018-07-01T00:16:09.860Z,12.54
2018-07-01T00:17:19.768Z,12.51
2018-07-01T00:18:29.886Z,12.5
2018-07-01T00:19:39.679Z,12.51
2018-07-01T00:20:49.745Z,12.45
2018-07-01T00:21:59.815Z,12.37
2018-07-01T00:23:09.370Z,12.26
2018-07-01T00:24:18.953Z,12.18
2018-07-01T00:25:28.754Z,12.2
2018-07-01T00:26:38.548Z,12.2
2018-07-01T00:27:48.067Z,12.18
2018-07-01T00:28:58.142Z,12.1
2018-07-01T00:30:07.740Z,12.03
2018-07-01T00:31:17.529Z,11.96
2018-07-01T00:32:27.590Z,12.02
2018-07-01T00:33:37.662Z,11.88
2018-07-01T00:34:47.466Z,11.88
2018-07-01T00:35:57.598Z,11.91
2018-07-01T00:37:07.690Z,11.7
2018-07-01T00:38:17.766Z,11.6
2018-07-01T00:39:27.850Z,11.67
2018-07-01T00:40:37.661Z,11.67
2018-07-01T00:41:47.499Z,11.62
2018-07-01T00:42:57.573Z,11.68
2018-07-01T00:44:06.824Z,11.71
2018-07-01T00:45:16.884Z,11.68
2018-07-01T00:46:26.936Z,11.74
2018-07-01T00:47:37.048Z,11.76
2018-07-01T00:48:46.565Z,11.68
2018-07-01T00:49:56.371Z,11.67
2018-07-01T00:51:06.457Z,11.58
2018-07-01T00:52:16.225Z,11.49
2018-07-01T00:53:26.331Z,11.44
2018-07-01T00:54:35.908Z,11.49
2018-07-01T00:55:45.965Z,11.56
2018-07-01T00:56:56.026Z,11.55
2018-07-01T00:58:05.811Z,11.45
2018-07-01T00:59:15.380Z,11.55
2018-07-01T01:00:24.924Z,11.49
2018-07-01T01:01:34.967Z,11.52
2018-07-01T01:02:44.766Z,11.52
2018-07-01T01:03:54.312Z,11.49
2018-07-01T01:05:04.164Z,11.43
2018-07-01T01:06:13.963Z,11.44
2018-07-01T01:07:24.023Z,11.43
2018-07-01T01:08:34.086Z,11.31
2018-07-01T01:09:43.884Z,11.27
2018-07-01T01:10:54.014Z,11.19
2018-07-01T01:12:03.815Z,11.08
2018-07-01T01:13:13.598Z,11.05
2018-07-01T01:14:23.129Z,10.97
2018-07-01T01:15:33.224Z,10.86
2018-07-01T01:16:43.065Z,10.83
2018-07-01T01:17:52.870Z,10.9
2018-07-01T01:19:02.957Z,10.83
2018-07-01T01:20:12.767Z,10.83
2018-07-01T01:21:22.847Z,10.86
2018-07-01T01:22:32.702Z,11.08
2018-07-01T01:23:42.757Z,11.12
2018-07-01T01:24:52.565Z,11.1
2018-07-01T01:26:02.353Z,11.13
2018-07-01T01:27:12.152Z,11.22
2018-07-01T01:28:22.260Z,11.27
2018-07-01T01:29:31.775Z,11.43
2018-07-01T01:30:41.296Z,11.49
2018-07-01T01:31:51.082Z,11.52
2018-07-01T01:33:01.170Z,11.62
2018-07-01T01:34:10.491Z,11.63
2018-07-01T01:35:20.538Z,11.67
2018-07-01T01:36:30.321Z,11.7
2018-07-01T01:37:40.392Z,11.8
2018-07-01T01:38:50.462Z,11.81
2018-07-01T01:40:00.588Z,11.86
2018-07-01T01:41:10.647Z,11.96
2018-07-01T01:42:20.442Z,11.95
2018-07-01T01:43:29.956Z,11.91
2018-07-01T01:44:40.030Z,11.97
2018-07-01T01:45:49.878Z,11.97
2018-07-01T01:46:59.964Z,11.96
2018-07-01T01:48:09.764Z,11.95
2018-07-01T01:49:19.607Z,11.91
2018-07-01T01:50:29.403Z,11.85
2018-07-01T01:51:39.509Z,11.74
2018-07-01T01:52:49.558Z,11.74
2018-07-01T01:53:59.631Z,11.81
2018-07-01T01:55:09.447Z,11.8
2018-07-01T01:56:19.503Z,11.85
2018-07-01T01:57:29.083Z,11.85
2018-07-01T01:58:38.873Z,11.77
2018-07-01T01:59:48.124Z,11.78
2018-07-01T02:00:57.918Z,11.77
2018-07-01T02:02:07.976Z,11.8
2018-07-01T02:03:18.103Z,11.76
2018-07-01T02:04:28.161Z,11.7
2018-07-01T02:05:38.244Z,11.76
2018-07-01T02:06:48.091Z,11.67
2018-07-01T02:07:58.138Z,11.63
2018-07-01T02:09:08.256Z,11.63
2018-07-01T02:10:18.053Z,11.56
2018-07-01T02:11:27.836Z,11.55
2018-07-01T02:12:37.891Z,11.48
2018-07-01T02:13:47.957Z,11.52
2018-07-01T02:14:58.083Z,11.44
2018-07-01T02:16:07.607Z,11.41
2018-07-01T02:17:17.478Z,11.4
2018-07-01T02:18:27.274Z,11.33
2018-07-01T02:19:37.058Z,11.34
2018-07-01T02:20:47.169Z,11.31
2018-07-01T02:21:56.954Z,11.3
2018-07-01T02:23:06.752Z,11.4
2018-07-01T02:24:16.829Z,11.33
2018-07-01T02:25:26.621Z,11.33
2018-07-01T02:26:36.179Z,11.34
2018-07-01T02:27:46.226Z,11.37
2018-07-01T02:28:56.303Z,11.33
2018-07-01T02:30:06.375Z,11.35
2018-07-01T02:31:16.448Z,11.27
2018-07-01T02:32:26.035Z,11.22
2018-07-01T02:33:36.124Z,11.3
2018-07-01T02:34:46.182Z,11.18
2018-07-01T02:35:55.974Z,11.23
2018-07-01T02:37:05.774Z,11.19
2018-07-01T02:38:15.898Z,11.33
2018-07-01T02:39:25.685Z,11.33
2018-07-01T02:40:35.202Z,11.33
2018-07-01T02:41:45.283Z,11.27
2018-07-01T02:42:55.375Z,11.23
2018-07-01T02:44:05.490Z,11.2
2018-07-01T02:45:15.537Z,11.2
2018-07-01T02:46:25.343Z,11.22
2018-07-01T02:47:35.159Z,11.2
2018-07-01T02:48:44.948Z,11.15
2018-07-01T02:49:55.072Z,11.15
2018-07-01T02:51:04.872Z,11.07
2018-07-01T02:52:14.673Z,11.13
2018-07-01T02:53:24.773Z,11.05
2018-07-01T02:54:34.572Z,11.12
2018-07-01T02:55:44.675Z,11.12
2018-07-01T02:56:54.475Z,11.02
2018-07-01T02:58:04.280Z,11.02
2018-07-01T02:59:14.099Z,11.07
2018-07-01T03:03:25.720Z,11.01
2018-07-01T03:04:35.800Z,11
2018-07-01T03:05:45.888Z,11.01
2018-07-01T03:06:55.696Z,11.08
2018-07-01T03:08:05.770Z,11.15
2018-07-01T03:09:15.614Z,11.07
2018-07-01T03:10:25.409Z,11.1
2018-07-01T03:11:35.210Z,11.05
2018-07-01T03:12:45.022Z,11.13
2018-07-01T03:13:54.825Z,11.12
2018-07-01T03:15:04.696Z,11.13
2018-07-01T03:16:14.479Z,11.13
2018-07-01T03:17:24.577Z,11.12
2018-07-01T03:18:34.099Z,11.2
2018-07-01T03:19:43.628Z,11.2
2018-07-01T03:20:53.213Z,11.25
2018-07-01T03:22:03.287Z,11.26
2018-07-01T03:23:12.821Z,11.26
2018-07-01T03:24:22.627Z,11.23
2018-07-01T03:25:32.146Z,11.26
2018-07-01T03:26:42.277Z,11.34
2018-07-01T03:27:52.330Z,11.3
2018-07-01T03:29:01.864Z,11.37
2018-07-01T03:30:11.148Z,11.37
2018-07-01T03:31:20.954Z,11.38
2018-07-01T03:32:30.807Z,11.31
2018-07-01T03:33:40.872Z,11.31
2018-07-01T03:34:50.668Z,11.34
2018-07-01T03:36:00.754Z,11.31
2018-07-01T03:37:10.826Z,11.34
2018-07-01T03:38:20.933Z,11.3
2018-07-01T03:39:30.730Z,11.34
2018-07-01T03:40:40.792Z,11.37
2018-07-01T03:41:50.855Z,11.35
2018-07-01T03:43:00.655Z,11.34
2018-07-01T03:44:10.219Z,11.45
2018-07-01T03:45:19.751Z,11.44
2018-07-01T03:46:29.800Z,11.58
2018-07-01T03:47:39.858Z,11.51
2018-07-01T03:48:49.383Z,11.55
2018-07-01T03:49:59.238Z,11.6
2018-07-01T03:51:09.098Z,11.62
2018-07-01T03:52:19.164Z,11.63
2018-07-01T03:53:29.214Z,11.65
2018-07-01T03:54:39.288Z,11.63
2018-07-01T03:55:48.857Z,11.73
2018-07-01T03:56:58.913Z,11.78
2018-07-01T03:58:08.993Z,11.91
2018-07-01T03:59:19.061Z,11.86
2018-07-01T04:00:28.745Z,11.93
2018-07-01T04:01:38.714Z,11.95
2018-07-01T04:02:48.531Z,12
2018-07-01T04:03:58.337Z,11.97
2018-07-01T04:05:08.132Z,12.05
2018-07-01T04:06:18.218Z,12.12
2018-07-01T04:07:28.331Z,12.11
2018-07-01T04:08:38.416Z,12.14
2018-07-01T04:09:48.243Z,12.15
2018-07-01T04:10:58.298Z,12.18
2018-07-01T04:12:08.356Z,12.17
2018-07-01T04:13:17.935Z,12.12
2018-07-01T04:14:27.751Z,12.12
2018-07-01T04:15:37.828Z,12.21
2018-07-01T04:16:47.629Z,12.29
2018-07-01T04:17:57.694Z,12.2
2018-07-01T04:19:07.267Z,12.29
2018-07-01T04:20:17.051Z,12.33
2018-07-01T04:21:26.840Z,12.37
2018-07-01T04:22:36.102Z,12.4
2018-07-01T04:23:45.630Z,12.47
2018-07-01T04:24:55.478Z,12.53
2018-07-01T04:26:05.568Z,12.5
2018-07-01T04:27:15.391Z,12.53
2018-07-01T04:28:25.181Z,12.54
2018-07-01T04:29:35.242Z,12.54
2018-07-01T04:30:45.074Z,12.55
2018-07-01T04:31:54.876Z,12.62
2018-07-01T04:33:04.406Z,12.69
2018-07-01T04:34:14.462Z,12.66
2018-07-01T04:35:24.269Z,12.76
2018-07-01T04:36:34.382Z,12.76
2018-07-01T04:37:44.192Z,12.87
2018-07-01T04:38:54.264Z,12.83
2018-07-01T04:40:04.065Z,12.84
2018-07-01T04:41:13.596Z,12.87
2018-07-01T04:42:23.724Z,12.88
2018-07-01T04:43:33.849Z,12.87
2018-07-01T04:44:43.925Z,13.01
2018-07-01T04:45:53.737Z,12.99
2018-07-01T04:47:03.591Z,12.95
2018-07-01T04:48:13.713Z,13.01
2018-07-01T04:49:23.995Z,13.09
2018-07-01T04:50:34.055Z,13.12
2018-07-01T04:51:44.105Z,13.13
2018-07-01T04:52:53.352Z,13.16
2018-07-01T04:54:03.197Z,13.17
2018-07-01T04:55:13.264Z,13.27
2018-07-01T04:56:23.719Z,13.21
2018-07-01T04:57:33.532Z,13.28
2018-07-01T04:58:43.601Z,13.28
2018-07-01T04:59:53.448Z,13.42
2018-07-01T05:01:03.238Z,13.39
2018-07-01T05:02:12.981Z,13.37
2018-07-01T05:03:23.314Z,13.39
2018-07-01T05:04:33.400Z,13.5
2018-07-01T05:05:43.244Z,13.52
2018-07-01T05:06:53.048Z,13.52
2018-07-01T05:08:02.849Z,13.54
2018-07-01T05:09:12.925Z,13.6
2018-07-01T05:10:22.993Z,13.64
2018-07-01T05:11:32.569Z,13.79
2018-07-01T05:12:42.387Z,13.71
2018-07-01T05:13:52.465Z,13.8
2018-07-01T05:15:02.528Z,13.83
2018-07-01T05:16:12.062Z,13.82
2018-07-01T05:17:21.928Z,13.79
2018-07-01T05:18:31.729Z,13.93
2018-07-01T05:19:41.811Z,13.83
2018-07-01T05:20:51.889Z,13.91
2018-07-01T05:22:01.956Z,13.82
2018-07-01T05:23:12.066Z,13.78
2018-07-01T05:24:22.128Z,13.79
2018-07-01T05:25:31.984Z,13.89
2018-07-01T05:26:41.778Z,13.75
2018-07-01T05:27:51.880Z,13.67
2018-07-01T05:29:01.730Z,13.61
2018-07-01T05:30:11.264Z,13.47
2018-07-01T05:31:20.533Z,13.33
2018-07-01T05:32:30.341Z,13.47
2018-07-01T05:33:40.238Z,13.47
2018-07-01T05:34:50.149Z,13.58
2018-07-01T05:36:00.220Z,13.55
2018-07-01T05:37:10.313Z,13.55
2018-07-01T05:38:20.364Z,13.54
2018-07-01T05:39:29.625Z,13.49
2018-07-01T05:40:39.739Z,13.46
2018-07-01T05:41:49.832Z,13.43
2018-07-01T05:42:59.886Z,13.5
2018-07-01T05:44:09.955Z,13.39
2018-07-01T05:45:19.756Z,13.37
2018-07-01T05:46:29.870Z,13.36
2018-07-01T05:47:39.675Z,13.46
2018-07-01T05:48:48.941Z,13.45
2018-07-01T05:49:59.037Z,13.37
2018-07-01T05:51:09.114Z,13.37
2018-07-01T05:52:18.678Z,13.5
2018-07-01T05:53:28.459Z,13.27
2018-07-01T05:54:38.000Z,13.28
2018-07-01T05:55:48.055Z,13.42
2018-07-01T05:56:57.848Z,13.43
2018-07-01T05:58:08.085Z,13.42
2018-07-01T05:59:17.607Z,13.52
2018-07-01T06:00:27.731Z,13.5
2018-07-01T06:01:37.805Z,13.57
2018-07-01T06:02:47.855Z,13.54
2018-07-01T06:03:57.971Z,13.5
2018-07-01T06:05:07.760Z,13.58
2018-07-01T06:06:17.887Z,13.61
2018-07-01T06:07:27.701Z,13.6
2018-07-01T06:08:37.592Z,13.6
2018-07-01T06:09:47.836Z,13.64
2018-07-01T06:10:57.891Z,13.65
2018-07-01T06:12:07.691Z,13.68
2018-07-01T06:13:17.759Z,13.73
2018-07-01T06:14:27.286Z,13.82
2018-07-01T06:15:37.398Z,13.8
2018-07-01T06:16:47.427Z,13.85
2018-07-01T06:17:57.530Z,13.97
2018-07-01T06:19:07.103Z,13.86
2018-07-01T06:20:17.180Z,13.85
2018-07-01T06:21:27.314Z,13.78
2018-07-01T06:22:37.373Z,13.87
2018-07-01T06:23:47.458Z,13.85
2018-07-01T06:24:57.254Z,13.86
2018-07-01T06:26:06.776Z,13.93
2018-07-01T06:27:16.358Z,13.82
2018-07-01T06:28:26.442Z,13.97
2018-07-01T06:29:35.969Z,13.91
2018-07-01T06:30:46.019Z,13.85
2018-07-01T06:31:56.080Z,13.91
2018-07-01T06:33:05.921Z,14
2018-07-01T06:34:15.736Z,13.85
2018-07-01T06:35:25.547Z,14.01
2018-07-01T06:36:48.365Z,14.01
2018-07-01T06:37:58.586Z,13.98
2018-07-01T06:39:09.006Z,14.07
2018-07-01T06:40:18.934Z,14.07
2018-07-01T06:41:28.726Z,14.16
2018-07-01T06:42:38.244Z,14.15
2018-07-01T06:43:47.825Z,14.18
2018-07-01T06:44:57.632Z,14.22
2018-07-01T06:46:06.892Z,14.36
2018-07-01T06:47:16.976Z,14.41
2018-07-01T06:48:26.763Z,14.38
2018-07-01T06:49:36.236Z,14.59
2018-07-01T06:50:46.040Z,14.68
2018-07-01T06:51:56.114Z,14.68
2018-07-01T06:53:06.170Z,14.85
2018-07-01T06:54:15.980Z,14.86
2018-07-01T06:55:26.097Z,14.93
2018-07-01T06:56:35.841Z,15.07
2018-07-01T06:57:45.655Z,15.12
2018-07-01T06:58:55.743Z,15.22
2018-07-01T07:00:05.538Z,15.3
2018-07-01T07:01:15.398Z,15.41
2018-07-01T07:02:25.576Z,15.47
2018-07-01T07:03:35.900Z,15.48
2018-07-01T07:04:45.984Z,15.55
2018-07-01T07:05:56.052Z,15.65
2018-07-01T07:07:05.907Z,15.63
2018-07-01T07:08:15.711Z,15.8
2018-07-01T07:09:25.778Z,15.8
2018-07-01T07:10:35.594Z,15.84
2018-07-01T07:11:45.674Z,15.88
2018-07-01T07:12:55.785Z,15.96
2018-07-01T07:14:05.860Z,15.99
2018-07-01T07:15:15.933Z,15.98
2018-07-01T07:16:26.317Z,16.03
2018-07-01T07:17:36.119Z,16.16
2018-07-01T07:18:45.702Z,16.09
2018-07-01T07:19:55.255Z,16.22
2018-07-01T07:21:05.035Z,16.26
2018-07-01T07:22:15.112Z,16.25
2018-07-01T07:23:24.916Z,16.22
2018-07-01T07:24:35.179Z,16.41
2018-07-01T07:25:45.407Z,16.41
2018-07-01T07:26:55.213Z,16.54
2018-07-01T07:28:05.289Z,16.58
2018-07-01T07:29:15.356Z,16.54
2018-07-01T07:30:25.484Z,16.5
2018-07-01T07:31:35.561Z,16.59
2018-07-01T07:32:45.081Z,16.66
2018-07-01T07:33:55.162Z,16.62
2018-07-01T07:35:05.234Z,16.66
2018-07-01T07:36:15.340Z,16.8
2018-07-01T07:37:25.417Z,16.86
2018-07-01T07:38:35.477Z,16.95
2018-07-01T07:39:45.290Z,16.92
2018-07-01T07:40:55.369Z,17.04
2018-07-01T07:42:05.228Z,17.09
2018-07-01T07:43:15.305Z,17.16
2018-07-01T07:44:25.109Z,17.17
2018-07-01T07:45:35.187Z,17.07
2018-07-01T07:46:44.986Z,17.22
2018-07-01T07:47:55.107Z,17.16
2018-07-01T07:49:05.159Z,17.24
2018-07-01T07:50:15.228Z,17.38
2018-07-01T07:51:25.296Z,17.31
2018-07-01T07:52:35.097Z,17.46
2018-07-01T07:53:45.212Z,17.42
2018-07-01T07:54:55.017Z,17.46
2018-07-01T07:56:04.285Z,17.5
2018-07-01T07:57:14.359Z,17.5
2018-07-01T07:58:23.625Z,17.6
2018-07-01T07:59:33.459Z,17.69
2018-07-01T08:00:43.531Z,17.68
2018-07-01T08:01:53.637Z,17.72
2018-07-01T08:03:03.538Z,17.78
2018-07-01T08:04:13.081Z,17.78
2018-07-01T08:05:23.204Z,17.84
2018-07-01T08:06:33.279Z,17.8
2018-07-01T08:07:42.820Z,17.9
2018-07-01T08:08:52.885Z,17.95
2018-07-01T08:10:03.007Z,17.97
2018-07-01T08:11:13.136Z,18.03
2018-07-01T08:12:23.200Z,18.12
2018-07-01T08:13:33.006Z,18.16
2018-07-01T08:14:42.816Z,18.16
2018-07-01T08:15:52.620Z,18.24
2018-07-01T08:17:02.476Z,18.33
2018-07-01T08:18:12.282Z,18.28
2018-07-01T08:19:22.350Z,18.36
2018-07-01T08:20:32.429Z,18.36
2018-07-01T08:21:41.954Z,18.39
2018-07-01T08:22:51.813Z,18.53
2018-07-01T08:24:01.618Z,18.46
2018-07-01T08:25:11.154Z,18.58
2018-07-01T08:26:21.243Z,18.6
2018-07-01T08:27:31.328Z,18.64
2018-07-01T08:28:41.452Z,18.7
2018-07-01T08:29:51.267Z,18.76
2018-07-01T08:31:01.354Z,18.78
2018-07-01T08:32:11.156Z,18.76
2018-07-01T08:33:21.227Z,18.82
2018-07-01T08:34:31.457Z,18.88
2018-07-01T08:35:41.438Z,18.98
2018-07-01T08:36:51.227Z,18.91
2018-07-01T08:38:01.034Z,18.96
2018-07-01T08:39:10.847Z,18.97
2018-07-01T08:40:21.243Z,19.09
2018-07-01T08:41:31.124Z,19.17
2018-07-01T08:42:40.953Z,19.26
2018-07-01T08:43:51.012Z,19.17
2018-07-01T08:45:01.094Z,19.23
2018-07-01T08:46:10.960Z,19.24
2018-07-01T08:47:21.082Z,19.41
2018-07-01T08:48:30.886Z,19.48
2018-07-01T08:49:40.955Z,19.52
2018-07-01T08:50:50.787Z,19.53
2018-07-01T08:52:00.919Z,19.48
2018-07-01T08:53:10.729Z,19.55
2018-07-01T08:54:20.541Z,19.57
2018-07-01T08:55:30.343Z,19.62
2018-07-01T08:56:40.144Z,19.64
2018-07-01T08:57:49.724Z,19.72
2018-07-01T08:58:59.971Z,19.77
2018-07-01T09:00:09.777Z,19.72
2018-07-01T09:01:19.561Z,19.85
2018-07-01T09:02:29.629Z,19.92
2018-07-01T09:03:39.479Z,19.94
2018-07-01T09:04:49.551Z,19.93
2018-07-01T09:05:58.805Z,19.92
2018-07-01T09:07:08.341Z,20
2018-07-01T09:08:18.409Z,20.08
2018-07-01T09:09:28.263Z,20.12
2018-07-01T09:10:38.320Z,20.19
2018-07-01T09:11:48.393Z,20.26
2018-07-01T09:12:58.197Z,20.32
2018-07-01T09:14:07.992Z,20.34
2018-07-01T09:15:18.124Z,20.24
2018-07-01T09:16:27.924Z,20.29
2018-07-01T09:17:37.734Z,20.39
2018-07-01T09:18:47.537Z,20.39
2018-07-01T09:19:57.337Z,20.37
2018-07-01T09:21:06.652Z,20.52
2018-07-01T09:22:16.468Z,20.53
2018-07-01T09:23:26.646Z,20.53
2018-07-01T09:24:36.836Z,20.59
2018-07-01T09:25:46.627Z,20.6
2018-07-01T09:26:56.209Z,20.67
2018-07-01T09:28:06.010Z,20.68
2018-07-01T09:29:15.826Z,20.78
2018-07-01T09:30:25.907Z,20.82
2018-07-01T09:31:35.184Z,20.85
2018-07-01T09:32:45.026Z,20.88
2018-07-01T09:33:55.091Z,21
2018-07-01T09:35:04.363Z,20.95
2018-07-01T09:36:14.201Z,21.01
2018-07-01T09:37:23.736Z,21.01
2018-07-01T09:38:33.331Z,21.03
2018-07-01T09:39:43.404Z,21.1
2018-07-01T09:40:53.195Z,21.13
2018-07-01T09:42:03.276Z,21.07
2018-07-01T09:43:13.353Z,21.08
2018-07-01T09:44:22.747Z,21.25
2018-07-01T09:45:32.880Z,21.22
2018-07-01T09:46:42.950Z,21.29
2018-07-01T09:47:52.477Z,21.4
2018-07-01T09:49:02.283Z,21.4
2018-07-01T09:50:12.441Z,21.4
2018-07-01T09:51:22.302Z,21.4
2018-07-01T09:52:31.837Z,21.56
2018-07-01T09:53:41.649Z,21.58
2018-07-01T09:54:51.458Z,21.6
2018-07-01T09:56:01.633Z,21.68
2018-07-01T09:57:10.887Z,21.72
2018-07-01T09:58:20.973Z,21.74
2018-07-01T09:59:31.047Z,21.83
2018-07-01T10:00:41.119Z,21.75
2018-07-01T10:01:50.977Z,21.81
2018-07-01T10:03:01.036Z,21.83
2018-07-01T10:04:10.839Z,21.84
2018-07-01T10:05:20.642Z,21.94
2018-07-01T10:06:30.712Z,22.03
2018-07-01T10:07:40.831Z,22.06
2018-07-01T10:08:50.910Z,22.19
2018-07-01T10:10:00.971Z,22.22
2018-07-01T10:11:10.524Z,22.3
2018-07-01T10:12:20.586Z,22.28
2018-07-01T10:13:30.705Z,22.37
2018-07-01T10:14:40.514Z,22.33
2018-07-01T10:15:50.603Z,22.41
2018-07-01T10:17:00.738Z,22.44
2018-07-01T10:18:10.841Z,22.46
2018-07-01T10:19:20.674Z,22.53
2018-07-01T10:20:30.766Z,22.47
2018-07-01T10:21:40.579Z,22.59
2018-07-01T10:22:50.386Z,22.52
2018-07-01T10:24:00.180Z,22.63
2018-07-01T10:25:09.752Z,22.62
2018-07-01T10:26:19.838Z,22.78
2018-07-01T10:27:29.696Z,22.77
2018-07-01T10:28:39.792Z,22.83
2018-07-01T10:29:49.864Z,22.81
2018-07-01T10:30:59.710Z,22.89
2018-07-01T10:32:09.233Z,22.93
2018-07-01T10:33:19.038Z,22.99
2018-07-01T10:34:28.839Z,22.95
2018-07-01T10:35:38.656Z,23.02
2018-07-01T10:36:48.496Z,23.04
2018-07-01T10:37:58.563Z,23.07
2018-07-01T10:39:08.680Z,23.13
2018-07-01T10:40:18.525Z,23.2
2018-07-01T10:41:28.163Z,23.25
2018-07-01T10:42:38.015Z,23.26
2018-07-01T10:43:47.819Z,23.28
2018-07-01T10:44:57.617Z,23.33
2018-07-01T10:46:07.168Z,23.37
2018-07-01T10:47:16.694Z,23.44
2018-07-01T10:48:26.825Z,23.4
2018-07-01T10:49:36.361Z,23.44
2018-07-01T10:50:46.456Z,23.56
2018-07-01T10:51:56.284Z,23.55
2018-07-01T10:53:06.104Z,23.55
2018-07-01T10:54:15.791Z,23.56
2018-07-01T10:55:25.892Z,23.69
2018-07-01T10:56:35.979Z,23.62
2018-07-01T10:57:45.935Z,23.64
2018-07-01T10:58:56.004Z,23.76
2018-07-01T11:00:06.125Z,23.66
2018-07-01T11:01:15.664Z,23.79
2018-07-01T11:02:25.739Z,23.85
2018-07-01T11:03:35.808Z,23.82
2018-07-01T11:04:45.883Z,23.86
2018-07-01T11:05:56.195Z,23.96
2018-07-01T11:07:05.794Z,24.04
2018-07-01T11:08:15.586Z,24.03
2018-07-01T11:09:25.658Z,24.06
2018-07-01T11:10:35.182Z,24.07
2018-07-01T11:11:45.009Z,24.1
2018-07-01T11:12:55.410Z,24.24
2018-07-01T11:14:04.681Z,24.24
2018-07-01T11:15:13.956Z,24.31
2018-07-01T11:16:23.766Z,24.4
2018-07-01T11:17:33.915Z,24.36
2018-07-01T11:18:43.725Z,24.46
2018-07-01T11:19:53.549Z,24.47
2018-07-01T11:21:03.090Z,24.62
2018-07-01T11:22:12.376Z,24.62
2018-07-01T11:23:22.503Z,24.63
2018-07-01T11:24:32.585Z,24.69
2018-07-01T11:25:42.636Z,24.69
2018-07-01T11:26:53.119Z,24.74
2018-07-01T11:28:03.517Z,24.86
2018-07-01T11:29:13.373Z,24.92
2018-07-01T11:30:23.463Z,24.94
2018-07-01T11:31:33.281Z,24.94
2018-07-01T11:32:43.271Z,25.04
2018-07-01T11:33:53.174Z,25.18
2018-07-01T11:35:03.137Z,25.3
2018-07-01T11:36:13.067Z,25.52
2018-07-01T11:37:23.146Z,25.83
2018-07-01T11:38:32.702Z,26.11
2018-07-01T11:39:42.510Z,26.55
2018-07-01T11:40:52.382Z,26.98
2018-07-01T11:42:02.457Z,27.44
2018-07-01T11:43:11.985Z,27.93
2018-07-01T11:44:21.804Z,28.37
2018-07-01T11:45:31.327Z,28.68
2018-07-01T11:46:41.180Z,29.13
2018-07-01T11:47:51.246Z,29.57
2018-07-01T11:49:01.326Z,29.98
2018-07-01T11:50:11.417Z,30.4
2018-07-01T11:51:21.242Z,30.99
2018-07-01T11:52:31.696Z,31.47
2018-07-01T11:53:41.187Z,31.69
2018-07-01T11:54:50.990Z,31.98
2018-07-01T11:56:00.820Z,32.42
2018-07-01T11:57:10.630Z,32.63
2018-07-01T11:58:20.785Z,33.01
2018-07-01T11:59:30.870Z,33.17
2018-07-01T12:00:40.678Z,33.66
2018-07-01T12:01:50.063Z,33.95
2018-07-01T12:03:00.482Z,34.04
2018-07-01T12:04:10.085Z,34.21
2018-07-01T12:05:22.144Z,34.51
2018-07-01T12:06:32.015Z,34.86
2018-07-01T12:07:41.827Z,35.35
2018-07-01T12:08:51.932Z,35.59
2018-07-01T12:10:02.081Z,35.98
2018-07-01T12:11:11.894Z,36.25
2018-07-01T12:12:21.711Z,35.94
2018-07-01T12:13:31.782Z,36.16
2018-07-01T12:14:41.581Z,36.39
2018-07-01T12:15:51.219Z,36.62
2018-07-01T12:17:00.754Z,36.39
2018-07-01T12:18:10.592Z,36.59
2018-07-01T12:19:20.675Z,36.6
2018-07-01T12:20:30.227Z,36.78
2018-07-01T12:21:40.353Z,36.63
2018-07-01T12:22:49.910Z,36.91
2018-07-01T12:23:59.465Z,37.21
2018-07-01T12:25:09.287Z,37.22
2018-07-01T12:26:19.128Z,37.56
2018-07-01T12:27:29.259Z,37.6
2018-07-01T12:28:39.370Z,37.91
2018-07-01T12:29:49.553Z,38.25
2018-07-01T12:30:59.630Z,38.17
2018-07-01T12:32:09.174Z,37.95
2018-07-01T12:33:19.311Z,38.16
2018-07-01T12:34:28.851Z,38.05
2018-07-01T12:35:38.669Z,38.41
2018-07-01T12:36:48.777Z,38.57
2018-07-01T12:37:58.874Z,38.56
2018-07-01T12:39:08.741Z,38.41
2018-07-01T12:40:18.556Z,38.62
2018-07-01T12:41:28.359Z,38.79
2018-07-01T12:42:38.179Z,38.63
2018-07-01T12:43:48.258Z,38.82
2018-07-01T12:44:58.134Z,38.7
2018-07-01T12:46:07.949Z,38.34
2018-07-01T12:47:18.055Z,38.6
2018-07-01T12:48:28.148Z,38.28
2018-07-01T12:49:37.990Z,38.38
2018-07-01T12:50:47.873Z,38.66
2018-07-01T12:51:57.693Z,38.91
2018-07-01T12:53:07.512Z,39.19
2018-07-01T12:54:17.337Z,39.05
2018-07-01T12:55:27.423Z,39.03
2018-07-01T12:56:37.192Z,39.29
2018-07-01T12:57:47.623Z,39.45
2018-07-01T12:58:57.711Z,39.51
2018-07-01T13:00:07.525Z,39.56
2018-07-01T13:01:17.624Z,39.54
2018-07-01T13:02:27.832Z,39.78
2018-07-01T13:03:37.678Z,40.02
2018-07-01T13:04:47.767Z,40.39
2018-07-01T13:05:57.861Z,40.58
2018-07-01T13:07:07.695Z,40.64
2018-07-01T13:08:17.572Z,40.81
2018-07-01T13:09:27.666Z,41
2018-07-01T13:10:37.217Z,41.05
2018-07-01T13:11:47.309Z,41.22
2018-07-01T13:12:57.221Z,41.18
2018-07-01T13:14:07.363Z,41.3
2018-07-01T13:15:17.474Z,41.32
2018-07-01T13:16:27.567Z,41.44
2018-07-01T13:17:37.654Z,41.6
2018-07-01T13:18:47.471Z,41.81
2018-07-01T13:19:57.619Z,41.73
2018-07-01T13:21:07.447Z,41.61
2018-07-01T13:22:17.269Z,41.73
2018-07-01T13:23:27.086Z,42
2018-07-01T13:24:37.174Z,42.29
2018-07-01T13:25:47.055Z,42.63
2018-07-01T13:26:57.152Z,42.82
2018-07-01T13:28:06.432Z,42.82
2018-07-01T13:29:16.531Z,42.89
2018-07-01T13:30:25.543Z,42.9
2018-07-01T13:31:35.418Z,42.92
2018-07-01T13:32:45.500Z,43.07
2018-07-01T13:33:55.621Z,43.25
2018-07-01T13:35:05.722Z,43.41
2018-07-01T13:36:15.821Z,43.53
2018-07-01T13:37:25.988Z,43.22
2018-07-01T13:38:35.818Z,42.93
2018-07-01T13:39:45.364Z,42.92
2018-07-01T13:40:55.450Z,42.8
2018-07-01T13:42:05.261Z,42.7
2018-07-01T13:43:14.868Z,42.53
2018-07-01T13:44:24.953Z,42.7
2018-07-01T13:45:35.053Z,42.74
2018-07-01T13:46:44.604Z,42.89
2018-07-01T13:47:54.142Z,42.92
2018-07-01T13:49:04.018Z,42.74
2018-07-01T13:50:13.887Z,42.74
2018-07-01T13:51:23.703Z,43.05
2018-07-01T13:52:33.795Z,43.16
2018-07-01T13:53:43.603Z,42.89
2018-07-01T13:54:53.489Z,42.92
2018-07-01T13:56:03.728Z,42.87
2018-07-01T13:57:14.007Z,42.78
2018-07-01T13:58:23.855Z,42.87
2018-07-01T13:59:33.939Z,42.94
2018-07-01T14:00:44.153Z,43.03
2018-07-01T14:01:54.384Z,43.03
2018-07-01T14:03:04.203Z,43.07
2018-07-01T14:04:14.131Z,42.92
2018-07-01T14:05:24.298Z,42.47
2018-07-01T14:06:34.645Z,42.75
2018-07-01T14:07:44.631Z,42.81
2018-07-01T14:08:54.444Z,43
2018-07-01T14:10:04.542Z,42.93
2018-07-01T14:11:14.650Z,43.07
2018-07-01T14:12:24.799Z,43
2018-07-01T14:13:34.924Z,43.14
2018-07-01T14:14:45.032Z,43.12
2018-07-01T14:15:54.849Z,42.77
2018-07-01T14:17:04.960Z,42.55
2018-07-01T14:18:14.560Z,42.47
2018-07-01T14:19:23.850Z,42.14
2018-07-01T14:20:33.948Z,42.21
2018-07-01T14:21:44.022Z,42.14
2018-07-01T14:22:53.828Z,42.25
2018-07-01T14:24:03.694Z,42.43
2018-07-01T14:25:13.525Z,42.58
2018-07-01T14:26:23.078Z,42.55
2018-07-01T14:27:33.163Z,42.68
2018-07-01T14:28:43.266Z,42.82
2018-07-01T14:29:53.600Z,42.86
2018-07-01T14:31:03.150Z,42.93
2018-07-01T14:32:12.429Z,43.02
2018-07-01T14:33:22.535Z,43.14
2018-07-01T14:34:32.379Z,43.19
2018-07-01T14:35:42.749Z,43.25
2018-07-01T14:36:52.292Z,43.32
2018-07-01T14:38:02.115Z,43.29
2018-07-01T14:39:11.398Z,43.19
2018-07-01T14:40:21.491Z,43.22
2018-07-01T14:41:31.642Z,43.43
2018-07-01T14:42:41.723Z,43.46
2018-07-01T14:43:51.816Z,43.61
2018-07-01T14:45:01.896Z,43.27
2018-07-01T14:46:11.444Z,43.19
2018-07-01T14:47:21.322Z,43.24
2018-07-01T14:48:31.399Z,43.25
2018-07-01T14:49:41.504Z,43.11
2018-07-01T14:50:51.614Z,43.15
2018-07-01T14:52:01.732Z,43.08
2018-07-01T14:53:11.338Z,43.32
2018-07-01T14:54:20.893Z,43.38
2018-07-01T14:55:30.714Z,43.38
2018-07-01T14:56:40.539Z,43.39
2018-07-01T14:57:50.365Z,43.47
2018-07-01T14:59:00.505Z,43.58
2018-07-01T15:00:10.610Z,43.69
2018-07-01T15:01:20.570Z,43.7
2018-07-01T15:02:30.571Z,43.35
2018-07-01T15:03:40.378Z,43.51
2018-07-01T15:04:50.260Z,43.68
2018-07-01T15:06:00.358Z,43.73
2018-07-01T15:07:09.901Z,43.85
2018-07-01T15:08:20.007Z,43.99